createdAt,value
2022-12-18T00:02:01.012Z,101206.06
2022-12-18T00:04:31.655Z,101217.41
2022-12-18T00:07:01.864Z,101220.91
2022-12-18T00:09:40.050Z,101224.34
2022-12-18T00:14:48.543Z,101247.03
2022-12-18T00:17:18.669Z,101247.91
2022-12-18T00:19:48.710Z,101245.28
2022-12-18T00:22:18.783Z,101249.69
2022-12-18T00:24:48.855Z,101250.41
2022-12-18T00:27:18.979Z,101259.22
2022-12-18T00:29:52.241Z,101261.91
2022-12-18T00:32:22.276Z,101267.16
2022-12-18T00:34:52.650Z,101270.53
2022-12-18T00:37:22.953Z,101268.78
2022-12-18T00:39:53.600Z,101231.22
2022-12-18T00:42:36.060Z,101276.72
2022-12-18T00:45:12.869Z,101280.31
2022-12-18T00:47:43.699Z,101286.44
2022-12-18T00:50:14.852Z,101288.06
2022-12-18T00:52:44.959Z,101293.28
2022-12-18T00:55:15.623Z,101287.41
2022-12-18T00:57:46.648Z,101290.09
2022-12-18T01:00:19.781Z,101303.81
2022-12-18T01:02:50.079Z,101304.69
2022-12-18T01:05:20.722Z,101300.44
2022-12-18T01:07:51.041Z,101315.13
2022-12-18T01:10:21.642Z,101309.97
2022-12-18T01:12:51.786Z,101308.19
2022-12-18T01:15:24.707Z,101308.34
2022-12-18T01:17:56.376Z,101315.25
2022-12-18T01:20:26.491Z,101311.69
2022-12-18T01:22:56.508Z,101311.63
2022-12-18T01:25:26.640Z,101324.66
2022-12-18T01:27:57.071Z,101324.66
2022-12-18T01:30:29.743Z,101322.06
2022-12-18T01:32:59.751Z,101325.44
2022-12-18T01:35:29.898Z,101330.63
2022-12-18T01:38:00.191Z,101325.44
2022-12-18T01:40:30.271Z,101328.91
2022-12-18T01:43:00.298Z,101326.47
2022-12-18T01:45:35.087Z,101330.19
2022-12-18T01:48:07.633Z,101342.34
2022-12-18T01:50:40.805Z,101339.75
2022-12-18T01:53:15.287Z,101348.41
2022-12-18T01:55:50.311Z,101353.66
2022-12-18T01:58:21.445Z,101350.19
2022-12-18T02:00:54.185Z,101353.72
2022-12-18T02:03:24.450Z,101351.13
2022-12-18T02:06:04.964Z,101356.31
2022-12-18T02:08:41.325Z,101361.53
2022-12-18T02:11:18.311Z,101357.19
2022-12-18T02:13:57.035Z,101361.53
2022-12-18T02:16:38.905Z,101369.31
2022-12-18T02:19:20.468Z,101372.00
2022-12-18T02:21:58.121Z,101376.38
2022-12-18T02:24:39.330Z,101369.47
2022-12-18T02:27:14.610Z,101380.69
2022-12-18T02:29:56.008Z,101383.22
2022-12-18T02:32:31.317Z,101380.91
2022-12-18T02:35:03.476Z,101392.81
2022-12-18T02:37:34.711Z,101390.13
2022-12-18T02:40:07.680Z,101391.03
2022-12-18T02:42:40.367Z,101397.06
2022-12-18T02:45:11.299Z,101397.06
2022-12-18T02:47:47.884Z,101396.19
2022-12-18T02:50:24.751Z,101399.63
2022-12-18T02:53:06.430Z,101400.44
2022-12-18T02:55:48.403Z,101396.13
2022-12-18T02:58:24.886Z,101379.72
2022-12-18T03:04:07.187Z,101405.75
2022-12-18T03:06:43.519Z,101413.53
2022-12-18T03:09:17.531Z,101416.16
2022-12-18T03:12:06.895Z,101413.53
2022-12-18T03:14:42.245Z,101417.91
2022-12-18T03:17:17.451Z,101415.28
2022-12-18T03:19:50.386Z,101411.59
2022-12-18T03:22:21.841Z,101411.44
2022-12-18T03:24:52.958Z,101420.09
2022-12-18T03:27:27.877Z,101415.72
2022-12-18T03:30:08.567Z,101418.34
2022-12-18T03:32:45.347Z,101420.13
2022-12-18T03:35:21.318Z,101431.44
2022-12-18T03:37:51.625Z,101427.22
2022-12-18T03:40:23.208Z,101440.22
2022-12-18T03:42:56.362Z,101444.47
2022-12-18T03:45:33.568Z,101443.56
2022-12-18T03:48:08.187Z,101450.53
2022-12-18T03:50:44.150Z,101448.78
2022-12-18T03:53:27.680Z,101447.03
2022-12-18T03:55:59.379Z,101457.50
2022-12-18T03:58:31.584Z,101457.56
2022-12-18T04:01:09.012Z,101461.06
2022-12-18T04:03:40.623Z,101463.66
2022-12-18T04:06:11.998Z,101467.13
2022-12-18T04:08:43.219Z,101469.75
2022-12-18T04:11:13.357Z,101473.28
2022-12-18T04:13:43.804Z,101476.91
2022-12-18T04:16:16.690Z,101483.78
2022-12-18T04:18:46.855Z,101485.56
2022-12-18T04:21:16.880Z,101489.03
2022-12-18T04:23:47.070Z,101496.88
2022-12-18T04:26:17.255Z,101504.81
2022-12-18T04:28:48.086Z,101507.50
2022-12-18T04:31:20.826Z,101508.38
2022-12-18T04:33:51.082Z,101505.91
2022-12-18T04:36:21.202Z,101502.53
2022-12-18T04:38:51.259Z,101502.66
2022-12-18T04:41:21.391Z,101507.13
2022-12-18T04:43:51.428Z,101509.06
2022-12-18T04:46:24.282Z,101510.03
2022-12-18T04:48:57.150Z,101517.94
2022-12-18T04:51:27.162Z,101526.69
2022-12-18T04:53:57.421Z,101534.63
2022-12-18T04:56:27.730Z,101535.69
2022-12-18T04:58:58.920Z,101543.59
2022-12-18T05:01:34.816Z,101536.81
2022-12-18T05:04:05.573Z,101544.72
2022-12-18T05:06:35.759Z,101549.13
2022-12-18T05:09:06.048Z,101555.09
2022-12-18T05:11:36.188Z,101557.75
2022-12-18T05:14:06.434Z,101556.97
2022-12-18T05:16:39.382Z,101556.28
2022-12-18T05:19:09.725Z,101566.84
2022-12-18T05:21:39.905Z,101563.31
2022-12-18T05:24:10.603Z,101567.72
2022-12-18T05:26:40.735Z,101577.31
2022-12-18T05:29:13.333Z,101575.59
2022-12-18T05:31:46.864Z,101578.25
2022-12-18T05:34:17.083Z,101576.59
2022-12-18T05:36:47.108Z,101586.97
2022-12-18T05:39:17.237Z,101592.16
2022-12-18T05:41:50.253Z,101592.22
2022-12-18T05:44:20.320Z,101599.97
2022-12-18T05:46:53.125Z,101603.50
2022-12-18T05:49:23.307Z,101616.56
2022-12-18T05:51:53.348Z,101612.22
2022-12-18T05:54:23.502Z,101611.34
2022-12-18T05:56:53.607Z,101615.66
2022-12-18T05:59:23.854Z,101624.25
2022-12-18T06:01:56.652Z,101623.38
2022-12-18T06:04:28.564Z,101619.84
2022-12-18T06:06:58.745Z,101622.41
2022-12-18T06:09:28.880Z,101622.41
2022-12-18T06:11:58.911Z,101627.56
2022-12-18T06:14:29.271Z,101626.69
2022-12-18T06:17:01.976Z,101630.88
2022-12-18T06:19:32.441Z,101631.78
2022-12-18T06:22:02.515Z,101636.00
2022-12-18T06:24:34.293Z,101644.63
2022-12-18T06:27:04.362Z,101655.91
2022-12-18T06:29:34.401Z,101658.50
2022-12-18T06:32:07.793Z,101658.47
2022-12-18T06:34:38.325Z,101661.03
2022-12-18T06:37:08.472Z,101667.06
2022-12-18T06:39:38.579Z,101667.03
2022-12-18T06:42:09.123Z,101666.19
2022-12-18T06:44:39.167Z,101676.66
2022-12-18T06:47:11.966Z,101686.22
2022-12-18T06:49:42.174Z,101671.56
2022-12-18T06:52:12.264Z,101685.31
2022-12-18T06:54:42.398Z,101690.63
2022-12-18T06:57:12.523Z,101685.47
2022-12-18T06:59:42.678Z,101694.09
2022-12-18T07:02:17.694Z,101693.25
2022-12-18T07:04:55.141Z,101703.56
2022-12-18T07:07:25.244Z,101709.25
2022-12-18T07:09:55.338Z,101698.31
2022-12-18T07:12:28.351Z,101716.44
2022-12-18T07:15:00.568Z,101726.06
2022-12-18T07:17:33.544Z,101723.47
2022-12-18T07:20:03.630Z,101727.78
2022-12-18T07:22:33.732Z,101735.06
2022-12-18T07:25:03.875Z,101740.72
2022-12-18T07:27:34.059Z,101740.44
2022-12-18T07:30:04.380Z,101755.53
2022-12-18T07:32:37.274Z,101749.72
2022-12-18T07:35:08.268Z,101756.91
2022-12-18T07:37:38.393Z,101765.31
2022-12-18T07:40:10.043Z,101762.38
2022-12-18T07:42:40.624Z,101770.00
2022-12-18T07:45:11.998Z,101765.03
2022-12-18T07:47:45.106Z,101776.41
2022-12-18T07:50:15.345Z,101782.63
2022-12-18T07:52:45.591Z,101785.56
2022-12-18T07:55:15.713Z,101781.66
2022-12-18T07:57:57.602Z,101779.19
2022-12-18T08:00:31.448Z,101782.81
2022-12-18T08:03:04.247Z,101790.69
2022-12-18T08:05:34.359Z,101794.22
2022-12-18T08:08:04.472Z,101800.28
2022-12-18T08:10:34.652Z,101804.75
2022-12-18T08:13:05.496Z,101815.06
2022-12-18T08:15:35.522Z,101810.63
2022-12-18T08:18:13.883Z,101813.19
2022-12-18T08:20:47.501Z,101814.75
2022-12-18T08:23:17.662Z,101815.44
2022-12-18T08:25:48.045Z,101815.41
2022-12-18T08:28:21.714Z,101824.84
2022-12-18T08:30:55.729Z,101835.84
2022-12-18T08:33:28.447Z,101826.91
2022-12-18T08:35:58.423Z,101831.94
2022-12-18T08:38:28.659Z,101836.09
2022-12-18T08:41:03.327Z,101839.44
2022-12-18T08:43:46.173Z,101828.97
2022-12-18T08:46:16.739Z,101840.72
2022-12-18T08:48:49.647Z,101849.69
2022-12-18T08:51:20.901Z,101856.91
2022-12-18T08:53:51.652Z,101852.00
2022-12-18T08:56:21.736Z,101850.84
2022-12-18T08:58:54.819Z,101847.84
2022-12-18T09:01:25.972Z,101839.31
2022-12-18T09:03:58.806Z,101849.59
2022-12-18T09:06:29.216Z,101854.84
2022-12-18T09:09:00.810Z,101866.72
2022-12-18T09:11:32.786Z,101863.88
2022-12-18T09:14:04.456Z,101876.59
2022-12-18T09:16:36.135Z,101858.06
2022-12-18T09:19:09.417Z,101882.34
2022-12-18T09:21:42.199Z,101877.88
2022-12-18T09:24:17.310Z,101879.00
2022-12-18T09:26:53.624Z,101876.63
2022-12-18T09:29:28.436Z,101883.91
2022-12-18T09:31:58.632Z,101885.28
2022-12-18T09:34:31.257Z,101878.34
2022-12-18T09:37:01.284Z,101889.22
2022-12-18T09:39:31.416Z,101885.97
2022-12-18T09:42:02.574Z,101879.66
2022-12-18T09:44:44.490Z,101886.31
2022-12-18T09:47:21.189Z,101890.94
2022-12-18T09:49:57.047Z,101895.38
2022-12-18T09:52:31.647Z,101891.75
2022-12-18T09:55:05.825Z,101888.03
2022-12-18T09:57:41.415Z,101885.25
2022-12-18T10:00:21.355Z,101892.19
2022-12-18T10:02:52.742Z,101881.00
2022-12-18T10:05:37.335Z,101887.19
2022-12-18T10:08:14.822Z,101886.75
2022-12-18T10:10:51.231Z,101885.22
2022-12-18T10:13:30.076Z,101884.13
2022-12-18T10:16:13.598Z,101887.56
2022-12-18T10:19:20.315Z,101882.59
2022-12-18T10:22:01.752Z,101887.09
2022-12-18T10:24:46.374Z,101888.06
2022-12-18T10:27:19.717Z,101892.41
2022-12-18T10:29:50.004Z,101881.28
2022-12-18T10:32:22.416Z,101887.53
2022-12-18T10:35:00.104Z,101880.47
2022-12-18T10:37:34.095Z,101887.31
2022-12-18T10:40:22.028Z,101879.47
2022-12-18T10:43:07.391Z,101875.03
2022-12-18T10:45:37.408Z,101880.16
2022-12-18T10:48:08.261Z,101884.41
2022-12-18T10:51:09.630Z,101876.47
2022-12-18T10:53:36.225Z,101879.19
2022-12-18T10:56:08.995Z,101881.69
2022-12-18T10:58:42.198Z,101882.41
2022-12-18T11:01:14.900Z,101873.63
2022-12-18T11:03:46.497Z,101877.41
2022-12-18T11:06:18.810Z,101877.16
2022-12-18T11:09:09.367Z,101873.59
2022-12-18T11:11:43.256Z,101869.88
2022-12-18T11:14:22.158Z,101878.09
2022-12-18T11:19:45.395Z,101873.44
2022-12-18T11:22:24.948Z,101863.38
2022-12-18T11:25:32.318Z,101864.78
2022-12-18T11:27:54.849Z,101857.56
2022-12-18T11:30:27.115Z,101862.84
2022-12-18T11:33:01.121Z,101865.81
2022-12-18T11:35:42.194Z,101862.19
2022-12-18T11:38:25.226Z,101870.13
2022-12-18T11:41:08.065Z,101864.34
2022-12-18T11:43:44.747Z,101865.13
2022-12-18T11:46:20.029Z,101854.94
2022-12-18T11:48:56.109Z,101859.91
2022-12-18T11:51:32.391Z,101860.22
2022-12-18T11:54:04.080Z,101866.81
2022-12-18T11:56:40.273Z,101862.19
2022-12-18T11:59:18.237Z,101863.84
2022-12-18T12:01:54.950Z,101866.25
2022-12-18T12:04:45.935Z,101861.69
2022-12-18T12:07:29.577Z,101856.44
2022-12-18T12:10:10.819Z,101857.03
2022-12-18T12:12:59.527Z,101863.16
2022-12-18T12:15:41.609Z,101857.81
2022-12-18T12:18:29.863Z,101857.28
2022-12-18T12:21:07.540Z,101859.75
2022-12-18T12:23:48.489Z,101864.56
2022-12-18T12:26:26.657Z,101862.16
2022-12-18T12:29:14.340Z,101863.38
2022-12-18T12:32:02.100Z,101871.97
2022-12-18T12:34:40.953Z,101856.25
2022-12-18T12:37:24.172Z,101862.22
2022-12-18T12:39:56.987Z,101869.81
2022-12-18T12:42:47.488Z,101864.59
2022-12-18T12:45:26.726Z,101851.06
2022-12-18T12:47:59.226Z,101867.50
2022-12-18T12:50:30.223Z,101870.16
2022-12-18T12:53:01.862Z,101871.13
2022-12-18T12:55:33.736Z,101866.06
2022-12-18T12:58:12.706Z,101884.72
2022-12-18T13:00:50.618Z,101880.38
2022-12-18T13:03:34.298Z,101878.84
2022-12-18T13:06:09.747Z,101897.91
2022-12-18T13:08:58.290Z,101896.31
2022-12-18T13:12:04.089Z,101903.94
2022-12-18T13:14:37.616Z,101902.34
2022-12-18T13:17:37.287Z,101907.38
2022-12-18T13:20:10.898Z,101911.69
2022-12-18T13:22:43.351Z,101911.66
2022-12-18T13:25:35.951Z,101912.59
2022-12-18T13:28:15.386Z,101919.63
2022-12-18T13:30:57.394Z,101925.97
2022-12-18T13:34:16.521Z,101922.53
2022-12-18T13:36:37.395Z,101928.75
2022-12-18T13:39:35.508Z,101930.56
2022-12-18T13:42:54.161Z,101932.53
2022-12-18T13:45:47.387Z,101940.34
2022-12-18T13:48:24.082Z,101943.88
2022-12-18T13:51:04.536Z,101942.28
2022-12-18T13:53:40.485Z,101940.44
2022-12-18T13:56:11.589Z,101945.81
2022-12-18T13:58:42.146Z,101945.88
2022-12-18T14:01:28.322Z,101942.38
2022-12-18T14:04:14.163Z,101945.09
2022-12-18T14:06:46.972Z,101960.78
2022-12-18T14:09:21.554Z,101953.13
2022-12-18T14:11:53.204Z,101959.25
2022-12-18T14:14:28.087Z,101963.63
2022-12-18T14:17:03.280Z,101961.97
2022-12-18T14:19:35.513Z,101972.41
2022-12-18T14:22:08.503Z,101962.13
2022-12-18T14:24:38.565Z,101968.28
2022-12-18T14:27:23.897Z,101976.16
2022-12-18T14:29:57.496Z,101970.09
2022-12-18T14:32:27.589Z,101975.47
2022-12-18T14:34:58.244Z,101977.06
2022-12-18T14:37:32.257Z,101971.09
2022-12-18T14:40:10.576Z,101972.91
2022-12-18T14:42:41.776Z,101969.72
2022-12-18T14:45:42.617Z,101973.91
2022-12-18T14:48:23.106Z,101982.69
2022-12-18T14:51:03.887Z,101983.63
2022-12-18T14:53:42.093Z,101983.69
2022-12-18T14:56:20.612Z,101988.97
2022-12-18T14:58:52.701Z,101983.00
2022-12-18T15:01:25.348Z,101986.47
2022-12-18T15:03:56.494Z,101988.25
2022-12-18T15:06:33.003Z,101992.53
2022-12-18T15:09:08.204Z,101989.13
2022-12-18T15:11:47.466Z,101984.84
2022-12-18T15:14:34.341Z,101999.69
2022-12-18T15:17:07.330Z,102007.41
2022-12-18T15:19:42.497Z,102003.13
2022-12-18T15:22:24.514Z,102011.81
2022-12-18T15:24:58.098Z,102014.34
2022-12-18T15:27:34.546Z,102005.69
2022-12-18T15:30:20.133Z,102015.28
2022-12-18T15:32:51.367Z,102016.16
2022-12-18T15:35:24.416Z,102024.84
2022-12-18T15:37:55.856Z,102034.34
2022-12-18T15:40:28.812Z,102030.91
2022-12-18T15:43:12.468Z,102030.81
2022-12-18T15:45:42.614Z,102037.75
2022-12-18T15:48:24.019Z,102039.47
2022-12-18T15:50:57.815Z,102041.19
2022-12-18T15:53:29.203Z,102042.94
2022-12-18T15:56:14.679Z,102047.25
2022-12-18T15:58:44.804Z,102048.09
2022-12-18T16:01:18.960Z,102055.88
2022-12-18T16:03:48.990Z,102061.03
2022-12-18T16:06:19.244Z,102066.25
2022-12-18T16:08:49.314Z,102071.47
2022-12-18T16:11:39.168Z,102065.44
2022-12-18T16:14:16.693Z,102078.38
2022-12-18T16:16:47.080Z,102075.81
2022-12-18T16:19:20.008Z,102087.97
2022-12-18T16:21:51.218Z,102081.00
2022-12-18T16:24:23.292Z,102090.53
2022-12-18T16:26:57.153Z,102091.38
2022-12-18T16:29:28.717Z,102098.31
2022-12-18T16:31:59.158Z,102098.28
2022-12-18T16:34:34.908Z,102096.47
2022-12-18T16:37:07.868Z,102095.66
2022-12-18T16:39:38.288Z,102099.16
2022-12-18T16:42:17.690Z,102107.81
2022-12-18T16:44:48.510Z,102020.63
2022-12-18T16:47:18.861Z,102106.03
2022-12-18T16:49:51.890Z,102100.91
2022-12-18T16:52:23.192Z,102110.47
2022-12-18T16:54:53.311Z,102120.94
2022-12-18T16:57:26.376Z,102095.03
2022-12-18T17:00:02.944Z,102120.16
2022-12-18T17:02:35.241Z,102122.75
2022-12-18T17:05:05.555Z,102127.91
2022-12-18T17:07:36.654Z,102125.28
2022-12-18T17:10:09.028Z,102131.31
2022-12-18T17:12:43.016Z,102128.69
2022-12-18T17:15:14.404Z,102134.75
2022-12-18T17:17:44.423Z,102135.56
2022-12-18T17:20:15.052Z,102133.81
2022-12-18T17:22:45.075Z,102142.41
2022-12-18T17:25:15.156Z,102145.00
2022-12-18T17:27:47.928Z,102143.22
2022-12-18T17:30:18.153Z,102153.59
2022-12-18T17:32:48.276Z,102152.75
2022-12-18T17:35:23.672Z,102151.84
2022-12-18T17:37:53.958Z,102148.41
2022-12-18T17:40:24.158Z,102153.59
2022-12-18T17:42:58.312Z,102144.91
2022-12-18T17:45:28.396Z,102150.16
2022-12-18T17:48:00.074Z,102150.13
2022-12-18T17:50:30.421Z,102150.13
2022-12-18T17:53:02.841Z,102149.25
2022-12-18T17:55:32.904Z,102161.41
2022-12-18T17:58:11.056Z,102146.66
2022-12-18T18:00:42.433Z,102150.97
2022-12-18T18:03:12.878Z,102144.06
2022-12-18T18:05:43.131Z,102150.09
2022-12-18T18:08:13.691Z,102147.53
2022-12-18T18:10:44.381Z,102151.00
2022-12-18T18:13:38.724Z,102131.13
2022-12-18T18:16:12.141Z,102145.78
2022-12-18T18:18:42.608Z,102146.72
2022-12-18T18:21:12.717Z,102144.09
2022-12-18T18:23:45.104Z,102146.72
2022-12-18T18:26:16.843Z,102151.91
2022-12-18T18:28:49.713Z,102145.91
2022-12-18T18:31:19.985Z,102143.31
2022-12-18T18:33:50.343Z,102147.59
2022-12-18T18:36:20.484Z,102135.44
2022-12-18T18:38:50.585Z,102137.19
2022-12-18T18:41:22.267Z,102134.63
2022-12-18T18:43:57.493Z,102139.78
2022-12-18T18:46:28.728Z,102141.56
2022-12-18T18:48:58.948Z,102146.72
2022-12-18T18:51:34.658Z,102143.22
2022-12-18T18:54:05.718Z,102136.22
2022-12-18T18:59:31.587Z,102144.94
2022-12-18T19:02:04.648Z,102140.63
2022-12-18T19:04:37.796Z,102147.56
2022-12-18T19:07:29.744Z,102154.53
2022-12-18T19:10:05.237Z,102156.31
2022-12-18T19:12:49.115Z,102157.13
2022-12-18T19:15:22.091Z,102167.47
2022-12-18T19:17:52.250Z,102176.13
2022-12-18T19:20:22.521Z,102189.16
2022-12-18T19:22:55.316Z,102193.47
2022-12-18T19:25:38.162Z,102196.00
2022-12-18T19:28:21.466Z,102189.06
2022-12-18T19:30:58.859Z,102196.88
2022-12-18T19:33:42.872Z,102203.88
2022-12-18T19:36:16.664Z,102212.44
2022-12-18T19:38:47.330Z,102209.00
2022-12-18T19:41:18.117Z,102205.53
2022-12-18T19:43:49.390Z,102213.41
2022-12-18T19:46:24.012Z,102214.28
2022-12-18T19:48:55.131Z,102226.34
2022-12-18T19:51:27.989Z,102216.81
2022-12-18T19:54:01.234Z,102218.53
2022-12-18T19:56:33.931Z,102217.63
2022-12-18T19:59:05.067Z,102219.34
2022-12-18T20:01:38.164Z,102225.44
2022-12-18T20:04:08.509Z,102225.44
2022-12-18T20:06:49.946Z,102228.00
2022-12-18T20:09:20.917Z,102235.81
2022-12-18T20:11:51.921Z,102234.91
2022-12-18T20:14:23.427Z,102234.03
2022-12-18T20:16:56.303Z,102245.34
2022-12-18T20:19:27.013Z,102244.50
2022-12-18T20:21:57.411Z,102241.91
2022-12-18T20:24:28.094Z,102253.19
2022-12-18T20:26:58.680Z,102243.66
2022-12-18T20:29:32.097Z,102242.78
2022-12-18T20:32:04.787Z,102253.22
2022-12-18T20:34:35.135Z,102255.81
2022-12-18T20:37:05.418Z,102251.50
2022-12-18T20:39:36.274Z,102256.69
2022-12-18T20:42:08.024Z,102262.75
2022-12-18T20:44:38.213Z,102263.63
2022-12-18T20:47:10.991Z,102261.84
2022-12-18T20:49:42.654Z,102259.25
2022-12-18T20:52:22.749Z,102258.41
2022-12-18T20:54:53.921Z,102255.84
2022-12-18T20:57:24.136Z,102254.09
2022-12-18T20:59:54.337Z,102258.44
2022-12-18T21:02:27.280Z,102256.69
2022-12-18T21:04:57.549Z,102260.16
2022-12-18T21:07:27.650Z,102264.47
2022-12-18T21:09:57.828Z,102269.72
2022-12-18T21:15:16.273Z,102153.16
2022-12-18T21:17:49.344Z,102274.13
2022-12-18T21:20:19.793Z,102270.66
2022-12-18T21:22:50.228Z,102273.19
2022-12-18T21:25:20.556Z,102268.84
2022-12-18T21:27:50.708Z,102260.19
2022-12-18T21:30:20.897Z,102248.94
2022-12-18T21:32:53.703Z,102240.34
2022-12-18T21:35:23.741Z,102254.97
2022-12-18T21:37:56.461Z,102256.72
2022-12-18T21:40:27.424Z,102248.06
2022-12-18T21:43:09.867Z,102249.75
2022-12-18T21:45:41.278Z,102249.84
2022-12-18T21:48:14.075Z,102252.41
2022-12-18T21:50:44.235Z,102250.72
2022-12-18T21:53:14.279Z,102248.91
2022-12-18T21:55:44.506Z,102254.13
2022-12-18T21:58:14.775Z,102261.97
2022-12-18T22:00:48.678Z,102255.06
2022-12-18T22:03:22.056Z,102249.78
2022-12-18T22:06:08.880Z,102242.03
2022-12-18T22:08:39.912Z,102247.25
2022-12-18T22:11:15.066Z,102250.72
2022-12-18T22:13:46.447Z,102249.84
2022-12-18T22:16:19.304Z,102243.78
2022-12-18T22:18:52.027Z,102245.50
2022-12-18T22:21:30.319Z,102245.44
2022-12-18T22:24:02.155Z,102233.31
2022-12-18T22:26:39.525Z,102234.25
2022-12-18T22:29:24.832Z,102228.19
2022-12-18T22:31:55.367Z,102228.22
2022-12-18T22:34:28.023Z,102234.28
2022-12-18T22:36:58.233Z,102229.06
2022-12-18T22:39:29.758Z,102241.16
2022-12-18T22:42:00.876Z,102242.09
2022-12-18T22:44:31.285Z,102236.00
2022-12-18T22:47:06.934Z,102228.19
2022-12-18T22:49:40.579Z,102225.59
2022-12-18T22:52:12.281Z,102226.47
2022-12-18T22:54:43.498Z,102224.72
2022-12-18T22:57:13.568Z,102235.19
2022-12-18T22:59:45.042Z,102228.22
2022-12-18T23:02:15.247Z,102229.09
2022-12-18T23:04:48.148Z,102229.09
2022-12-18T23:07:18.501Z,102229.09
2022-12-18T23:09:50.734Z,102224.75
2022-12-18T23:12:27.643Z,102233.41
2022-12-18T23:14:57.745Z,102230.81
2022-12-18T23:17:30.416Z,102236.00
2022-12-18T23:20:03.229Z,102242.91
2022-12-18T23:22:39.386Z,102252.47
2022-12-18T23:25:12.791Z,102251.59
2022-12-18T23:27:42.854Z,102247.28
2022-12-18T23:30:14.467Z,102246.44
2022-12-18T23:32:44.600Z,102253.38
2022-12-18T23:35:17.517Z,102248.16
2022-12-18T23:37:59.268Z,102242.09
2022-12-18T23:40:30.013Z,102244.66
2022-12-18T23:43:00.181Z,102255.09
2022-12-18T23:45:30.458Z,102239.44
2022-12-18T23:48:00.527Z,102242.94
2022-12-18T23:50:33.239Z,102267.25
2022-12-18T23:53:05.464Z,102260.34
2022-12-18T23:55:40.206Z,102263.81
2022-12-18T23:58:11.325Z,102256.03
